createdAt,value
2022-10-02T00:00:34.752Z,1006.56
2022-10-02T00:01:34.842Z,1006.53
2022-10-02T00:02:34.663Z,1006.57
2022-10-02T00:03:34.801Z,1006.58
2022-10-02T00:04:34.735Z,1006.61
2022-10-02T00:05:34.971Z,1006.62
2022-10-02T00:06:34.845Z,1006.65
2022-10-02T00:07:35.533Z,1006.66
2022-10-02T00:08:34.559Z,1006.66
2022-10-02T00:09:34.612Z,1006.64
2022-10-02T00:10:34.581Z,1006.61
2022-10-02T00:11:34.694Z,1006.64
2022-10-02T00:12:34.528Z,1006.58
2022-10-02T00:13:34.596Z,1006.61
2022-10-02T00:14:34.492Z,1006.57
2022-10-02T00:15:34.450Z,1006.58
2022-10-02T00:16:36.405Z,1006.54
2022-10-02T00:17:34.430Z,1006.47
2022-10-02T00:18:34.496Z,1006.50
2022-10-02T00:19:34.715Z,1006.53
2022-10-02T00:20:34.518Z,1006.56
2022-10-02T00:21:34.547Z,1006.54
2022-10-02T00:22:34.353Z,1006.45
2022-10-02T00:23:34.429Z,1006.48
2022-10-02T00:24:34.347Z,1006.47
2022-10-02T00:25:34.394Z,1006.53
2022-10-02T00:26:34.815Z,1006.53
2022-10-02T00:27:35.178Z,1006.49
2022-10-02T00:28:34.397Z,1006.62
2022-10-02T00:29:34.298Z,1006.60
2022-10-02T00:30:34.986Z,1006.53
2022-10-02T00:31:35.215Z,1006.55
2022-10-02T00:32:34.267Z,1006.60
2022-10-02T00:33:34.364Z,1006.57
2022-10-02T00:34:34.291Z,1006.55
2022-10-02T00:35:35.166Z,1006.63
2022-10-02T00:36:34.482Z,1006.65
2022-10-02T00:37:34.253Z,1006.64
2022-10-02T00:38:34.343Z,1006.55
2022-10-02T00:39:34.334Z,1006.64
2022-10-02T00:40:34.208Z,1006.71
2022-10-02T00:41:34.155Z,1006.72
2022-10-02T00:42:35.552Z,1006.59
2022-10-02T00:43:37.536Z,1006.55
2022-10-02T00:44:34.651Z,1006.50
2022-10-02T00:45:34.249Z,1006.50
2022-10-02T00:46:34.487Z,1006.49
2022-10-02T00:47:34.191Z,1006.46
2022-10-02T00:48:34.105Z,1006.48
2022-10-02T00:49:34.638Z,1006.46
2022-10-02T00:50:41.271Z,1006.48
2022-10-02T00:51:35.058Z,1006.53
2022-10-02T00:52:33.978Z,1006.54
2022-10-02T00:53:33.930Z,1006.63
2022-10-02T00:54:34.459Z,1006.60
2022-10-02T00:55:34.247Z,1006.65
2022-10-02T00:56:34.314Z,1006.66
2022-10-02T00:57:34.180Z,1006.68
2022-10-02T00:58:33.978Z,1006.66
2022-10-02T00:59:33.883Z,1006.65
2022-10-02T01:00:34.082Z,1006.63
2022-10-02T01:01:34.170Z,1006.63
2022-10-02T01:02:35.082Z,1006.64
2022-10-02T01:03:33.881Z,1006.63
2022-10-02T01:04:35.253Z,1006.60
2022-10-02T01:05:34.667Z,1006.70
2022-10-02T01:06:34.374Z,1006.71
2022-10-02T01:07:35.490Z,1006.60
2022-10-02T01:08:38.153Z,1006.52
2022-10-02T01:09:33.814Z,1006.61
2022-10-02T01:10:33.862Z,1006.65
2022-10-02T01:11:33.951Z,1006.64
2022-10-02T01:12:35.755Z,1006.55
2022-10-02T01:13:35.923Z,1006.54
2022-10-02T01:14:35.452Z,1006.60
2022-10-02T01:15:37.984Z,1006.58
2022-10-02T01:16:34.002Z,1006.60
2022-10-02T01:17:35.985Z,1006.66
2022-10-02T01:18:34.831Z,1006.70
2022-10-02T01:19:33.564Z,1006.72
2022-10-02T01:20:33.919Z,1006.70
2022-10-02T01:21:35.094Z,1006.73
2022-10-02T01:22:33.525Z,1006.74
2022-10-02T01:23:33.545Z,1006.66
2022-10-02T01:24:39.685Z,1006.68
2022-10-02T01:25:33.976Z,1006.66
2022-10-02T01:26:36.350Z,1006.73
2022-10-02T01:27:38.018Z,1006.75
2022-10-02T01:28:36.956Z,1006.85
2022-10-02T01:29:37.894Z,1006.87
2022-10-02T01:30:34.556Z,1006.92
2022-10-02T01:31:34.460Z,1006.92
2022-10-02T01:32:34.307Z,1006.99
2022-10-02T02:16:01.086Z,1007.20
2022-10-02T02:17:01.026Z,1007.32
2022-10-02T02:18:00.646Z,1007.38
2022-10-02T02:19:00.972Z,1007.38
2022-10-02T02:20:00.672Z,1007.41
2022-10-02T02:21:00.642Z,1007.45
2022-10-02T02:22:01.362Z,1007.46
2022-10-02T02:23:00.552Z,1007.49
2022-10-02T02:24:01.381Z,1007.58
2022-10-02T02:25:00.593Z,1007.57
2022-10-02T02:26:01.459Z,1007.45
2022-10-02T02:27:01.352Z,1007.54
2022-10-02T02:28:01.324Z,1007.47
2022-10-02T02:29:00.490Z,1007.53
2022-10-02T02:30:00.860Z,1007.48
2022-10-02T02:31:01.222Z,1007.54
2022-10-02T02:32:01.398Z,1007.60
2022-10-02T02:33:01.286Z,1007.59
2022-10-02T02:34:01.216Z,1007.57
2022-10-02T02:35:01.356Z,1007.56
2022-10-02T02:36:01.272Z,1007.55
2022-10-02T02:37:01.421Z,1007.64
2022-10-02T02:38:00.372Z,1007.64
2022-10-02T02:39:01.310Z,1007.64
2022-10-02T02:40:00.424Z,1007.63
2022-10-02T02:41:00.332Z,1007.65
2022-10-02T02:42:00.277Z,1007.71
2022-10-02T02:43:01.098Z,1007.64
2022-10-02T02:44:01.009Z,1007.58
2022-10-02T02:45:01.180Z,1007.63
2022-10-02T02:46:00.287Z,1007.70
2022-10-02T02:47:00.968Z,1007.72
2022-10-02T02:48:01.648Z,1007.65
2022-10-02T02:49:01.028Z,1007.64
2022-10-02T02:50:00.937Z,1007.69
2022-10-02T02:51:00.205Z,1007.63
2022-10-02T02:52:00.161Z,1007.65
2022-10-02T02:53:00.129Z,1007.73
2022-10-02T02:54:00.177Z,1007.70
2022-10-02T02:55:00.137Z,1007.69
2022-10-02T02:56:00.110Z,1007.68
2022-10-02T02:57:01.037Z,1007.75
2022-10-02T02:58:00.941Z,1007.74
2022-10-02T02:59:00.116Z,1007.71
2022-10-02T03:00:00.074Z,1007.70
2022-10-02T03:01:00.169Z,1007.72
2022-10-02T03:02:00.106Z,1007.66
2022-10-02T03:03:00.689Z,1007.69
2022-10-02T03:03:59.947Z,1007.69
2022-10-02T03:05:00.778Z,1007.72
2022-10-02T03:06:00.708Z,1007.77
2022-10-02T03:07:00.839Z,1007.73
2022-10-02T03:08:00.557Z,1007.73
2022-10-02T03:09:00.164Z,1007.71
2022-10-02T03:09:59.868Z,1007.81
2022-10-02T03:11:00.711Z,1007.85
2022-10-02T03:11:59.893Z,1007.87
2022-10-02T03:12:59.837Z,1007.85
2022-10-02T03:13:59.841Z,1007.89
2022-10-02T03:14:59.891Z,1007.88
2022-10-02T03:16:00.793Z,1007.91
2022-10-02T03:17:00.642Z,1007.91
2022-10-02T03:18:00.599Z,1007.86
2022-10-02T03:18:59.789Z,1007.87
2022-10-02T03:20:01.230Z,1007.91
2022-10-02T03:20:59.805Z,1007.86
2022-10-02T03:21:59.701Z,1007.90
2022-10-02T03:23:00.583Z,1007.80
2022-10-02T03:24:02.083Z,1007.81
2022-10-02T03:24:59.764Z,1007.84
2022-10-02T03:25:59.853Z,1007.81
2022-10-02T03:27:00.452Z,1007.83
2022-10-02T03:28:00.668Z,1007.76
2022-10-02T03:29:00.603Z,1007.74
2022-10-02T03:29:59.656Z,1007.68
2022-10-02T03:30:59.595Z,1007.64
2022-10-02T03:32:00.484Z,1007.66
2022-10-02T03:32:59.583Z,1007.61
2022-10-02T03:33:59.534Z,1007.65
2022-10-02T03:35:00.455Z,1007.65
2022-10-02T03:35:59.662Z,1007.66
2022-10-02T03:37:00.006Z,1007.68
2022-10-02T03:37:59.506Z,1007.70
2022-10-02T03:39:24.145Z,1007.73
2022-10-02T03:40:01.255Z,1007.65
2022-10-02T03:40:59.419Z,1007.61
2022-10-02T03:42:00.320Z,1007.60
2022-10-02T03:43:00.848Z,1007.58
2022-10-02T03:44:00.362Z,1007.62
2022-10-02T03:44:59.367Z,1007.65
2022-10-02T03:46:00.237Z,1007.61
2022-10-02T03:46:59.628Z,1007.63
2022-10-02T03:47:59.343Z,1007.66
2022-10-02T03:48:59.318Z,1007.62
2022-10-02T03:49:59.278Z,1007.60
2022-10-02T03:51:00.198Z,1007.63
2022-10-02T03:52:00.117Z,1007.65
2022-10-02T03:53:00.039Z,1007.63
2022-10-02T03:53:59.252Z,1007.63
2022-10-02T03:55:00.069Z,1007.63
2022-10-02T03:55:59.218Z,1007.67
2022-10-02T03:57:00.166Z,1007.71
2022-10-02T03:58:00.038Z,1007.72
2022-10-02T03:58:59.940Z,1007.68
2022-10-02T03:59:59.159Z,1007.62
2022-10-02T04:00:59.279Z,1007.64
2022-10-02T04:01:59.230Z,1007.67
2022-10-02T04:03:00.077Z,1007.76
2022-10-02T04:04:00.075Z,1007.79
2022-10-02T04:05:00.550Z,1007.81
2022-10-02T04:06:00.069Z,1007.82
2022-10-02T04:06:59.944Z,1007.79
2022-10-02T04:07:59.850Z,1007.81
2022-10-02T04:08:59.011Z,1007.84
2022-10-02T04:09:59.024Z,1007.79
2022-10-02T04:10:59.818Z,1007.85
2022-10-02T04:11:59.971Z,1007.76
2022-10-02T04:12:59.003Z,1007.80
2022-10-02T04:13:59.788Z,1007.84
2022-10-02T04:14:59.942Z,1007.83
2022-10-02T04:15:59.907Z,1007.77
2022-10-02T04:16:58.965Z,1007.81
2022-10-02T04:17:59.253Z,1007.80
2022-10-02T04:18:59.815Z,1007.90
2022-10-02T04:19:59.216Z,1007.85
2022-10-02T04:20:58.921Z,1007.88
2022-10-02T04:21:58.894Z,1007.84
2022-10-02T04:22:58.991Z,1007.90
2022-10-02T04:23:58.819Z,1007.87
2022-10-02T04:24:59.756Z,1007.94
2022-10-02T04:26:00.248Z,1007.94
2022-10-02T04:26:58.834Z,1007.96
2022-10-02T04:27:59.798Z,1007.97
2022-10-02T04:28:58.756Z,1007.99
2022-10-02T04:29:59.526Z,1008.01
2022-10-02T04:30:59.101Z,1008.06
2022-10-02T04:31:59.652Z,1008.04
2022-10-02T04:32:58.714Z,1008.09
2022-10-02T04:33:58.737Z,1008.10
2022-10-02T04:34:58.678Z,1008.14
2022-10-02T04:35:59.457Z,1008.11
2022-10-02T04:36:58.725Z,1008.16
2022-10-02T04:37:59.528Z,1008.14
2022-10-02T04:38:59.432Z,1008.16
2022-10-02T04:39:59.607Z,1008.09
2022-10-02T04:40:58.621Z,1008.06
2022-10-02T04:41:59.398Z,1008.05
2022-10-02T04:43:00.022Z,1007.96
2022-10-02T04:43:59.469Z,1007.98
2022-10-02T04:44:58.526Z,1008.01
2022-10-02T04:45:59.559Z,1008.01
2022-10-02T04:46:58.574Z,1008.04
2022-10-02T04:47:58.561Z,1008.06
2022-10-02T04:48:58.588Z,1008.02
2022-10-02T04:49:59.400Z,1008.07
2022-10-02T04:50:58.531Z,1008.05
2022-10-02T04:51:58.580Z,1008.03
2022-10-02T04:52:58.542Z,1008.04
2022-10-02T04:53:59.270Z,1008.07
2022-10-02T04:54:58.401Z,1008.06
2022-10-02T04:55:58.380Z,1007.99
2022-10-02T04:56:58.417Z,1008.04
2022-10-02T04:57:59.140Z,1007.97
2022-10-02T04:58:59.301Z,1007.98
2022-10-02T04:59:58.352Z,1008.01
2022-10-02T05:00:59.175Z,1007.96
2022-10-02T05:01:58.592Z,1008.01
2022-10-02T05:02:59.210Z,1008.06
2022-10-02T05:04:03.889Z,1008.09
2022-10-02T05:04:59.242Z,1008.03
2022-10-02T05:05:58.253Z,1008.02
2022-10-02T05:06:59.043Z,1008.04
2022-10-02T05:07:59.204Z,1008.06
2022-10-02T05:08:58.186Z,1008.03
2022-10-02T05:09:58.333Z,1007.99
2022-10-02T05:10:58.233Z,1008.00
2022-10-02T05:11:59.104Z,1007.97
2022-10-02T05:12:58.984Z,1008.03
2022-10-02T05:13:58.886Z,1008.00
2022-10-02T05:14:58.155Z,1007.99
2022-10-02T05:15:58.191Z,1008.02
2022-10-02T05:16:58.107Z,1008.11
2022-10-02T05:17:58.325Z,1008.07
2022-10-02T05:18:58.156Z,1008.10
2022-10-02T05:19:58.076Z,1008.04
2022-10-02T05:20:58.048Z,1007.98
2022-10-02T05:21:58.556Z,1007.93
2022-10-02T05:22:58.456Z,1007.92
2022-10-02T05:23:58.951Z,1008.00
2022-10-02T05:24:58.038Z,1007.95
2022-10-02T05:25:58.007Z,1007.91
2022-10-02T05:26:58.050Z,1007.86
2022-10-02T05:27:58.923Z,1007.89
2022-10-02T05:28:58.010Z,1007.94
2022-10-02T05:29:58.895Z,1007.96
2022-10-02T05:30:58.833Z,1008.00
2022-10-02T05:31:58.703Z,1007.95
2022-10-02T05:32:57.898Z,1007.95
2022-10-02T05:33:58.790Z,1007.97
2022-10-02T05:34:58.660Z,1008.00
2022-10-02T05:35:58.837Z,1008.05
2022-10-02T05:36:58.727Z,1008.03
2022-10-02T05:37:58.628Z,1008.07
2022-10-02T05:38:57.777Z,1008.10
2022-10-02T05:39:58.811Z,1008.11
2022-10-02T05:40:57.892Z,1008.08
2022-10-02T05:41:59.702Z,1008.08
2022-10-02T05:42:57.752Z,1008.11
2022-10-02T05:43:58.560Z,1008.13
2022-10-02T05:44:58.101Z,1008.18
2022-10-02T05:45:57.932Z,1008.19
2022-10-02T05:46:57.828Z,1008.26
2022-10-02T05:47:58.448Z,1008.33
2022-10-02T05:48:57.663Z,1008.32
2022-10-02T05:49:58.500Z,1008.25
2022-10-02T05:50:58.408Z,1008.22
2022-10-02T05:51:57.654Z,1008.21
2022-10-02T05:52:59.148Z,1008.24
2022-10-02T05:53:58.380Z,1008.26
2022-10-02T05:54:57.571Z,1008.23
2022-10-02T05:55:57.603Z,1008.19
2022-10-02T05:56:58.112Z,1008.15
2022-10-02T05:57:57.551Z,1008.18
2022-10-02T05:58:57.532Z,1008.19
2022-10-02T05:59:57.523Z,1008.26
2022-10-02T06:00:57.572Z,1008.26
2022-10-02T06:01:57.514Z,1008.24
2022-10-02T06:02:58.273Z,1008.28
2022-10-02T06:03:57.482Z,1008.23
2022-10-02T06:04:58.344Z,1008.21
2022-10-02T06:05:57.834Z,1008.16
2022-10-02T06:06:58.404Z,1008.23
2022-10-02T06:07:57.426Z,1008.21
2022-10-02T06:08:57.395Z,1008.21
2022-10-02T06:09:57.386Z,1008.26
2022-10-02T06:10:57.354Z,1008.26
2022-10-02T06:11:58.028Z,1008.24
2022-10-02T06:12:58.086Z,1008.30
2022-10-02T06:13:57.305Z,1008.35
2022-10-02T06:14:58.239Z,1008.47
2022-10-02T06:15:57.331Z,1008.44
2022-10-02T06:16:57.268Z,1008.49
2022-10-02T06:17:58.131Z,1008.37
2022-10-02T06:18:57.494Z,1008.48
2022-10-02T06:20:02.975Z,1008.46
2022-10-02T06:20:58.257Z,1008.44
2022-10-02T06:21:57.521Z,1008.39
2022-10-02T06:22:57.296Z,1008.43
2022-10-02T06:23:57.248Z,1008.39
2022-10-02T06:24:58.002Z,1008.42
2022-10-02T06:25:57.428Z,1008.39
2022-10-02T06:26:57.586Z,1008.36
2022-10-02T06:27:58.024Z,1008.45
2022-10-02T06:28:57.177Z,1008.46
2022-10-02T06:29:57.109Z,1008.45
2022-10-02T06:30:57.249Z,1008.42
2022-10-02T06:31:57.235Z,1008.45
2022-10-02T06:32:57.100Z,1008.41
2022-10-02T06:33:57.895Z,1008.45
2022-10-02T06:34:57.184Z,1008.38
2022-10-02T06:35:57.341Z,1008.40
2022-10-02T06:36:57.850Z,1008.39
2022-10-02T06:37:57.371Z,1008.29
2022-10-02T06:38:57.451Z,1008.22
2022-10-02T06:39:57.144Z,1008.17
2022-10-02T06:40:56.943Z,1008.10
2022-10-02T06:41:56.933Z,1008.09
2022-10-02T06:42:58.391Z,1008.04
2022-10-02T06:43:56.922Z,1008.06
2022-10-02T06:44:57.849Z,1008.03
2022-10-02T06:45:57.798Z,1008.07
2022-10-02T06:46:57.079Z,1008.18
2022-10-02T06:47:56.940Z,1008.19
2022-10-02T06:48:56.833Z,1008.16
2022-10-02T06:49:57.603Z,1008.19
2022-10-02T06:50:57.787Z,1008.17
2022-10-02T06:51:56.813Z,1008.23
2022-10-02T06:52:57.574Z,1008.20
2022-10-02T06:53:56.760Z,1008.20
2022-10-02T06:54:56.785Z,1008.21
2022-10-02T06:55:56.745Z,1008.30
2022-10-02T06:56:57.470Z,1008.24
2022-10-02T06:57:57.606Z,1008.25
2022-10-02T06:58:57.010Z,1008.24
2022-10-02T06:59:56.675Z,1008.28
2022-10-02T07:00:57.615Z,1008.32
2022-10-02T07:01:57.677Z,1008.34
2022-10-02T07:02:56.655Z,1008.43
2022-10-02T07:03:56.699Z,1008.43
2022-10-02T07:04:56.687Z,1008.43
2022-10-02T07:05:56.577Z,1008.47
2022-10-02T07:06:56.555Z,1008.53
2022-10-02T07:07:56.569Z,1008.59
2022-10-02T07:08:56.886Z,1008.55
2022-10-02T07:09:57.491Z,1008.57
2022-10-02T07:10:56.518Z,1008.59
2022-10-02T07:11:57.288Z,1008.60
2022-10-02T07:12:56.503Z,1008.62
2022-10-02T07:13:56.809Z,1008.62
2022-10-02T07:14:56.519Z,1008.68
2022-10-02T07:15:57.424Z,1008.69
2022-10-02T07:16:56.493Z,1008.69
2022-10-02T07:17:57.221Z,1008.67
2022-10-02T07:18:56.860Z,1008.66
2022-10-02T07:19:56.470Z,1008.72
2022-10-02T07:20:57.191Z,1008.73
2022-10-02T07:21:56.371Z,1008.73
2022-10-02T07:22:57.284Z,1008.75
2022-10-02T07:24:00.125Z,1008.81
2022-10-02T07:24:57.418Z,1008.81
2022-10-02T07:25:56.408Z,1008.81
2022-10-02T07:26:56.362Z,1008.85
2022-10-02T07:27:56.366Z,1008.90
2022-10-02T07:28:57.192Z,1008.92
2022-10-02T07:29:56.974Z,1008.98
2022-10-02T07:30:56.398Z,1009.04
2022-10-02T07:31:56.265Z,1009.04
2022-10-02T07:32:56.332Z,1009.14
2022-10-02T07:33:56.183Z,1009.12
2022-10-02T07:34:56.217Z,1009.12
2022-10-02T07:35:56.242Z,1009.13
2022-10-02T07:36:56.207Z,1009.12
2022-10-02T07:37:57.095Z,1009.16
2022-10-02T07:38:56.115Z,1009.17
2022-10-02T07:39:56.143Z,1009.11
2022-10-02T07:40:59.882Z,1009.11
2022-10-02T07:41:56.225Z,1009.14
2022-10-02T07:42:56.084Z,1009.11
2022-10-02T07:43:56.188Z,1009.13
2022-10-02T07:44:56.960Z,1009.16
2022-10-02T07:45:56.069Z,1009.21
2022-10-02T07:46:56.998Z,1009.20
2022-10-02T07:47:56.006Z,1009.22
2022-10-02T07:48:56.846Z,1009.26
2022-10-02T07:49:56.708Z,1009.25
2022-10-02T07:50:55.968Z,1009.26
2022-10-02T07:51:55.983Z,1009.35
2022-10-02T07:52:56.681Z,1009.33
2022-10-02T07:53:55.909Z,1009.42
2022-10-02T07:54:55.918Z,1009.39
2022-10-02T07:55:55.989Z,1009.45
2022-10-02T07:56:56.110Z,1009.39
2022-10-02T07:57:56.709Z,1009.39
2022-10-02T07:58:56.790Z,1009.40
2022-10-02T07:59:56.772Z,1009.43
2022-10-02T08:00:55.809Z,1009.50
2022-10-02T08:01:56.610Z,1009.55
2022-10-02T08:02:56.092Z,1009.55
2022-10-02T08:03:56.703Z,1009.56
2022-10-02T08:04:56.561Z,1009.54
2022-10-02T08:05:55.774Z,1009.50
2022-10-02T08:06:55.736Z,1009.44
2022-10-02T08:07:56.512Z,1009.45
2022-10-02T08:08:56.684Z,1009.37
2022-10-02T08:09:55.801Z,1009.29
2022-10-02T08:10:55.882Z,1009.31
2022-10-02T08:11:55.709Z,1009.30
2022-10-02T08:12:56.576Z,1009.27
2022-10-02T08:13:55.806Z,1009.30
2022-10-02T08:14:55.645Z,1009.30
2022-10-02T08:15:55.702Z,1009.35
2022-10-02T08:16:55.677Z,1009.36
2022-10-02T08:17:58.688Z,1009.38
2022-10-02T08:18:57.516Z,1009.41
2022-10-02T08:19:55.616Z,1009.40
2022-10-02T08:20:55.598Z,1009.40
2022-10-02T08:21:55.573Z,1009.38
2022-10-02T08:22:55.644Z,1009.39
2022-10-02T08:23:55.698Z,1009.37
2022-10-02T08:24:55.528Z,1009.44
2022-10-02T08:25:55.489Z,1009.45
2022-10-02T08:26:55.526Z,1009.42
2022-10-02T08:27:55.669Z,1009.40
2022-10-02T08:28:55.608Z,1009.43
2022-10-02T08:29:55.477Z,1009.51
2022-10-02T08:30:55.450Z,1009.47
2022-10-02T08:31:55.738Z,1009.51
2022-10-02T08:32:55.372Z,1009.51
2022-10-02T08:33:55.400Z,1009.52
2022-10-02T08:34:55.462Z,1009.53
2022-10-02T08:35:55.571Z,1009.58
2022-10-02T08:36:55.356Z,1009.58
2022-10-02T08:37:55.576Z,1009.58
2022-10-02T08:38:55.318Z,1009.59
2022-10-02T08:39:55.372Z,1009.65
2022-10-02T08:40:55.391Z,1009.62
2022-10-02T08:41:55.299Z,1009.66
2022-10-02T08:42:55.259Z,1009.66
2022-10-02T08:43:55.251Z,1009.70
2022-10-02T08:44:55.203Z,1009.69
2022-10-02T08:45:55.402Z,1009.70
2022-10-02T08:46:55.145Z,1009.72
2022-10-02T08:47:55.189Z,1009.72
2022-10-02T08:48:55.163Z,1009.82
2022-10-02T08:49:55.159Z,1009.81
2022-10-02T08:50:55.114Z,1009.83
2022-10-02T08:51:55.180Z,1009.78
2022-10-02T08:52:55.263Z,1009.82
2022-10-02T08:53:55.136Z,1009.81
2022-10-02T08:54:55.096Z,1009.86
2022-10-02T08:55:55.036Z,1009.88
2022-10-02T08:56:55.018Z,1009.87
2022-10-02T08:57:55.089Z,1009.95
2022-10-02T08:58:55.056Z,1009.88
2022-10-02T08:59:55.923Z,1009.99
2022-10-02T09:00:55.293Z,1009.99
2022-10-02T09:01:59.559Z,1010.04
2022-10-02T09:02:56.227Z,1010.04
2022-10-02T09:03:55.188Z,1010.09
2022-10-02T09:04:55.161Z,1010.10
2022-10-02T09:05:54.898Z,1010.17
2022-10-02T09:06:54.929Z,1010.17
2022-10-02T09:07:54.930Z,1010.08
2022-10-02T09:08:54.859Z,1010.05
2022-10-02T09:09:54.882Z,1010.06
2022-10-02T09:10:54.880Z,1010.00
2022-10-02T09:11:54.850Z,1009.90
2022-10-02T09:12:54.823Z,1009.94
2022-10-02T09:13:54.801Z,1009.93
2022-10-02T09:14:58.734Z,1009.89
2022-10-02T09:15:54.781Z,1009.90
2022-10-02T09:16:55.597Z,1009.91
2022-10-02T09:17:54.771Z,1009.85
2022-10-02T09:18:54.790Z,1009.80
2022-10-02T09:19:55.492Z,1009.76
2022-10-02T09:20:54.677Z,1009.74
2022-10-02T09:21:54.764Z,1009.78
2022-10-02T09:22:56.154Z,1009.85
2022-10-02T09:23:55.623Z,1009.85
2022-10-02T09:24:54.647Z,1009.89
2022-10-02T09:25:54.667Z,1009.90
2022-10-02T09:26:54.648Z,1009.93
2022-10-02T09:27:55.577Z,1009.91
2022-10-02T09:28:54.565Z,1009.95
2022-10-02T09:29:54.555Z,1009.94
2022-10-02T09:30:54.620Z,1009.97
2022-10-02T09:31:54.569Z,1010.01
2022-10-02T09:32:54.547Z,1009.92
2022-10-02T09:33:54.506Z,1009.87
2022-10-02T09:34:55.337Z,1009.86
2022-10-02T09:35:55.153Z,1009.87
2022-10-02T09:36:55.248Z,1009.91
2022-10-02T09:37:55.304Z,1009.92
2022-10-02T09:38:55.887Z,1009.98
2022-10-02T09:39:55.228Z,1010.04
2022-10-02T09:40:55.316Z,1010.01
2022-10-02T09:41:54.438Z,1009.96
2022-10-02T09:42:54.398Z,1009.82
2022-10-02T09:43:55.801Z,1009.88
2022-10-02T09:44:57.194Z,1009.94
2022-10-02T09:45:55.343Z,1010.00
2022-10-02T09:46:54.378Z,1009.99
2022-10-02T09:47:54.379Z,1009.95
2022-10-02T09:48:54.397Z,1009.94
2022-10-02T09:49:55.179Z,1009.95
2022-10-02T09:50:54.270Z,1009.85
2022-10-02T09:51:54.270Z,1009.95
2022-10-02T09:52:55.146Z,1009.95
2022-10-02T09:53:54.222Z,1009.98
2022-10-02T09:54:54.221Z,1009.98
2022-10-02T09:55:55.114Z,1010.04
2022-10-02T09:56:55.015Z,1010.10
2022-10-02T09:57:54.223Z,1010.06
2022-10-02T09:58:54.187Z,1010.15
2022-10-02T09:59:54.983Z,1010.10
2022-10-02T10:00:54.203Z,1010.03
2022-10-02T10:01:55.089Z,1010.06
2022-10-02T10:02:54.951Z,1010.07
2022-10-02T10:03:54.855Z,1010.08
2022-10-02T10:05:05.489Z,1010.13
2022-10-02T10:05:55.946Z,1010.13
2022-10-02T10:06:54.856Z,1010.17
2022-10-02T10:07:54.014Z,1010.22
2022-10-02T10:08:54.905Z,1010.11
2022-10-02T10:09:54.834Z,1010.12
2022-10-02T10:10:53.999Z,1010.05
2022-10-02T10:11:54.863Z,1010.04
2022-10-02T10:12:53.938Z,1010.16
2022-10-02T10:13:54.919Z,1010.13
2022-10-02T10:14:54.817Z,1010.11
2022-10-02T10:15:53.919Z,1010.08
2022-10-02T10:16:53.899Z,1010.05
2022-10-02T10:17:53.881Z,1010.05
2022-10-02T10:18:53.869Z,1010.11
2022-10-02T10:19:54.860Z,1010.10
2022-10-02T10:20:53.868Z,1010.12
2022-10-02T10:21:53.860Z,1010.15
2022-10-02T10:22:54.567Z,1010.17
2022-10-02T10:23:54.730Z,1010.18
2022-10-02T10:24:54.629Z,1010.19
2022-10-02T10:25:54.532Z,1010.13
2022-10-02T10:26:54.718Z,1010.19
2022-10-02T10:27:54.680Z,1010.22
2022-10-02T10:28:53.740Z,1010.16
2022-10-02T10:29:53.691Z,1010.16
2022-10-02T10:30:53.731Z,1010.20
2022-10-02T10:31:53.932Z,1010.24
2022-10-02T10:32:54.644Z,1010.24
2022-10-02T10:33:54.532Z,1010.30
2022-10-02T10:34:53.642Z,1010.25
2022-10-02T10:35:53.623Z,1010.22
2022-10-02T10:36:54.505Z,1010.26
2022-10-02T10:37:54.425Z,1010.22
2022-10-02T10:38:53.915Z,1010.17
2022-10-02T10:39:53.891Z,1010.24
2022-10-02T10:40:53.666Z,1010.22
2022-10-02T10:41:53.927Z,1010.17
2022-10-02T10:43:07.543Z,1010.24
2022-10-02T10:43:54.600Z,1010.25
2022-10-02T10:44:53.526Z,1010.31
2022-10-02T10:45:53.592Z,1010.26
2022-10-02T10:46:54.310Z,1010.26
2022-10-02T10:47:53.638Z,1010.26
2022-10-02T10:48:53.505Z,1010.29
2022-10-02T10:49:53.628Z,1010.28
2022-10-02T10:50:53.427Z,1010.31
2022-10-02T10:51:54.347Z,1010.30
2022-10-02T10:52:53.418Z,1010.39
2022-10-02T10:53:54.718Z,1010.32
2022-10-02T10:54:53.409Z,1010.33
2022-10-02T10:55:54.214Z,1010.40
2022-10-02T10:56:54.118Z,1010.46
2022-10-02T10:57:53.828Z,1010.51
2022-10-02T10:58:53.341Z,1010.53
2022-10-02T10:59:54.100Z,1010.58
2022-10-02T11:00:53.616Z,1010.64
2022-10-02T11:01:53.929Z,1010.56
2022-10-02T11:02:53.372Z,1010.60
2022-10-02T11:03:53.221Z,1010.66
2022-10-02T11:04:54.124Z,1010.71
2022-10-02T11:05:53.241Z,1010.74
2022-10-02T11:06:53.291Z,1010.76
2022-10-02T11:07:53.273Z,1010.81
2022-10-02T11:08:53.251Z,1010.90
2022-10-02T11:09:53.212Z,1010.88
2022-10-02T11:10:53.223Z,1010.97
2022-10-02T11:11:53.256Z,1011.03
2022-10-02T11:12:53.863Z,1011.06
2022-10-02T11:13:53.583Z,1011.08
2022-10-02T11:14:53.215Z,1011.16
2022-10-02T11:15:53.084Z,1011.16
2022-10-02T11:16:53.211Z,1011.17
2022-10-02T11:17:53.895Z,1011.10
2022-10-02T11:18:54.547Z,1011.23
2022-10-02T11:19:53.962Z,1011.13
2022-10-02T11:20:53.863Z,1011.11
2022-10-02T11:21:53.068Z,1011.15
2022-10-02T11:22:53.925Z,1011.21
2022-10-02T11:23:53.836Z,1011.15
2022-10-02T11:24:52.958Z,1011.13
2022-10-02T11:25:53.900Z,1011.11
2022-10-02T11:26:53.807Z,1011.16
2022-10-02T11:27:53.772Z,1011.16
2022-10-02T11:28:53.098Z,1011.17
2022-10-02T11:29:54.350Z,1011.16
2022-10-02T11:30:52.949Z,1011.10
2022-10-02T11:31:52.946Z,1011.22
2022-10-02T11:32:53.745Z,1011.16
2022-10-02T11:33:52.801Z,1011.25
2022-10-02T11:34:54.242Z,1011.19
2022-10-02T11:35:52.793Z,1011.21
2022-10-02T11:36:52.767Z,1011.18
2022-10-02T11:37:52.771Z,1011.28
2022-10-02T11:38:52.773Z,1011.25
2022-10-02T11:39:53.572Z,1011.35
2022-10-02T11:40:53.134Z,1011.37
2022-10-02T11:41:52.762Z,1011.34
2022-10-02T11:42:52.744Z,1011.43
2022-10-02T11:43:52.709Z,1011.42
2022-10-02T11:44:52.656Z,1011.41
2022-10-02T11:45:53.533Z,1011.41
2022-10-02T11:46:52.668Z,1011.42
2022-10-02T11:47:52.635Z,1011.43
2022-10-02T11:48:52.626Z,1011.48
2022-10-02T11:49:52.727Z,1011.43
2022-10-02T11:50:53.548Z,1011.42
2022-10-02T11:51:52.659Z,1011.54
2022-10-02T11:52:53.349Z,1011.36
2022-10-02T11:53:53.509Z,1011.31
2022-10-02T11:54:52.659Z,1011.35
2022-10-02T11:55:53.319Z,1011.34
2022-10-02T11:56:53.479Z,1011.52
2022-10-02T11:57:52.479Z,1011.38
2022-10-02T11:58:53.283Z,1011.26
2022-10-02T11:59:53.452Z,1011.23
2022-10-02T12:00:53.352Z,1011.29
2022-10-02T12:01:52.493Z,1011.35
2022-10-02T12:02:53.499Z,1011.27
2022-10-02T12:03:53.321Z,1011.30
2022-10-02T12:04:52.646Z,1011.25
2022-10-02T12:05:53.137Z,1011.33
2022-10-02T12:06:53.284Z,1011.27
2022-10-02T12:07:52.363Z,1011.41
2022-10-02T12:08:53.097Z,1011.40
2022-10-02T12:09:52.316Z,1011.38
2022-10-02T12:10:53.163Z,1011.40
2022-10-02T12:11:53.063Z,1011.53
2022-10-02T12:12:52.279Z,1011.56
2022-10-02T12:13:52.255Z,1011.48
2022-10-02T12:14:52.317Z,1011.54
2022-10-02T12:15:52.299Z,1011.54
2022-10-02T12:16:52.877Z,1011.67
2022-10-02T12:17:53.029Z,1011.65
2022-10-02T12:18:52.198Z,1011.70
2022-10-02T12:19:53.073Z,1011.73
2022-10-02T12:20:52.162Z,1011.69
2022-10-02T12:21:53.134Z,1011.76
2022-10-02T12:22:52.159Z,1011.71
2022-10-02T12:23:52.935Z,1011.65
2022-10-02T12:24:54.905Z,1011.72
2022-10-02T12:25:53.002Z,1011.69
2022-10-02T12:26:52.081Z,1011.68
2022-10-02T12:27:52.130Z,1011.75
2022-10-02T12:28:52.966Z,1011.72
2022-10-02T12:29:52.055Z,1011.74
2022-10-02T12:30:52.085Z,1011.69
2022-10-02T12:31:52.281Z,1011.69
2022-10-02T12:32:52.842Z,1011.74
2022-10-02T12:33:56.417Z,1011.76
2022-10-02T12:34:51.967Z,1011.66
2022-10-02T12:35:51.947Z,1011.65
2022-10-02T12:36:51.965Z,1011.67
2022-10-02T12:37:52.919Z,1011.71
2022-10-02T12:38:52.773Z,1011.62
2022-10-02T12:39:52.676Z,1011.62
2022-10-02T12:40:51.995Z,1011.57
2022-10-02T12:41:51.899Z,1011.57
2022-10-02T12:42:52.648Z,1011.60
2022-10-02T12:43:52.829Z,1011.54
2022-10-02T12:44:52.258Z,1011.66
2022-10-02T12:45:52.644Z,1011.64
2022-10-02T12:46:52.846Z,1011.69
2022-10-02T12:47:53.240Z,1011.67